6NA7 weather

Kersten Brothers Airport
Newburg, North Dakota, United States

Public forecast

Using degrees Fahrenheit for public forecast. Weather courtesy of forecast.io.

METAR (pilot weather report)

Closest report is Minot Air Force Base, 25.6 nm (47.5 km) SW. Retrieved 2019/09/23 02:56 UTC (47 minutes ago):

KMIB 230256Z AUTO 24005KT 10SM CLR 13/09 A2982 RMK AO2 SLP106 T01280087 53008 $

TAF (pilot weather forecast)

Forecast is more than 12 hours old.

Closest forecast is Minot Air Force Base, 25.6 nm (47.5 km) SW. Retrieved 2019/09/20 17:03 UTC (2 days ago):

TAF KMIB 201700Z 2017/2123 31009KT 9999 VCTS FEW003 SCT015 BKN020CB OVC040 QNH2970INS TEMPO 2019/2021 34010G15KT 8000 -TSRA FEW003 BKN015CB OVC030 BECMG 2100/2101 340009KT 6000 -SHRA BKN015 OVC030 QNH2964INS BECMG 2101/2102 31012KT 9999 NSW SCT010 BKN020 OVC030 QNH2967INS BECMG 2112/2113 31010G15KT 8000 -SHRA BR SCT010 OVC020 QNH2973INS TEMPO 2115/2116 27015G25KT 4800 -TSRA SCT010CB OVC020 BECMG 2119/2120 33012KT 9999 NSW BKN030 QNH2984INS TX19/2023Z TN14/2112Z